Trempealeau, WI (54661)

12:10 AM CST on December 04, 2016 (GMT -0600)
Nodine, mn | | Change Station
Active Advisory: Winter Weather Advisory

Elev 1270 ft 43.91 °N, 91.42 °W | Updated 26 seconds ago

Overcast
Overcast
30.0 °F
Feels Like 23 °F
N
6.5
Wind Variable Wind from South
Gusts 9.8 mph

Today
High -- | Low -- °F
--% Chance of Precip.
Yesterday
High -- | Low -- °F
Precip. -- in
Pressure 30.22 in
Visibility 10.0 miles
Clouds Overcast 5500 ft
Windchill 23 °F
Dew Point 17 °F
Humidity 57%
Rainfall 0.00 in
Snow Depth Not available.
7:24 AM 4:28 PM
Waxing Crescent, 20% visible
METAR KLSE 040553Z AUTO 14005KT 10SM OVC055 01/M03 A3019 RMK AO2 SLP233 T00111028 10011 20000 400171006 58007 $
Pressure 30.22 in
Visibility 10.0 miles
Clouds Overcast 5500 ft
Windchill 23 °F
Dew Point 17 °F
Humidity 57%
Rainfall 0.00 in
Snow Depth Not available.
7:24 AM 4:28 PM
Waxing Crescent, 20% visible
METAR KLSE 040553Z AUTO 14005KT 10SM OVC055 01/M03 A3019 RMK AO2 SLP233 T00111028 10011 20000 400171006 58007 $

10-Day Weather Forecast

Almanac

Astronomy

Dec. 04, 2016 Rise Set
Actual Time
Civil Twilight
Nautical Twilight
Astronomical Twilight
Moon
Length of Visible Light
Length of Day
Tomorrow will be .
, % of the Moon is Illuminated

Today's Extremes

State Highs State Lows

Community

WunderPhotos

Upload Photos

1,955,586 photos uploaded!

WunderBlog® & News

Nearby

Air Quality

  Air Quality AQ Index Pollutant
Not available.

Snow Depth

Station Depth Elevation

Earthquake Activity

City Distance Mag. Time & Date
Minimum magnitude displayed is 2.5.

Coastal Water Temperatures

Place Temperature

Stations

Nearby Weather Stations

Station Location Temp. Windchill Dew Point Humidity Wind Precip. Elev Updated Type
                   

Watches & Warnings

Winter Weather Advisory
Issued: 10:56 PM CST Dec. 3, 2016 – National Weather Service

... Winter Weather Advisory remains in effect from 3 am to 3 PM
CST Sunday...

* expect snow to move in overnight and then diminish around 3 PM
Sunday.

* The heaviest snowfall rates will occur between 6 am and noon
Sunday.

* Total snow accumulations of 2 to 4 inches are expected.

* Look for reduced visibilities at times.

* Plan on slippery Road conditions.

Precautionary/preparedness actions...

A Winter Weather Advisory means that periods of snow... sleet or
freezing rain will cause travel difficulties. Be prepared for
slippery roads and limited visibilities... and use caution while
driving. The latest Road conditions for the state you are calling
from can be obtained by calling 5 1 1.